METAR Data
IDs: Format: Raw Decoded Include TAF

Data at: 2108 UTC 18 Apr 2021

METAR for:KBRO (Brownsville Intl, TX, US)
Text:KBRO 182053Z 02015G21KT 10SM FEW032 OVC090 20/10 A3004 RMK AO2 SLP172 T02000100 56017
Temperature: 20.0°C ( 68°F)
Dewpoint: 10.0°C ( 50°F) [RH = 53%]
Pressure (altimeter):30.04 inches Hg (1017.4 mb) [Sea level pressure: 1017.2 mb]
Winds:from the NNE (20 degrees) at 17 MPH (15 knots; 7.7 m/s) gusting to 24 MPH (21 knots; 10.8 m/s)
Visibility:10 or more sm (16+ km)
Ceiling:9000 feet AGL
Clouds: few clouds at 3200 feet AGL, overcast cloud deck at 9000 feet AGL